createdAt,value
2023-03-08T00:00:42.425Z,2.40
2023-03-08T00:03:15.071Z,1.50
2023-03-08T00:05:43.124Z,1.60
2023-03-08T00:08:11.228Z,1.92
2023-03-08T00:10:39.204Z,1.60
2023-03-08T00:13:07.255Z,1.85
2023-03-08T00:15:35.315Z,2.03
2023-03-08T00:18:04.915Z,1.40
2023-03-08T00:20:34.629Z,2.55
2023-03-08T00:23:02.603Z,2.20
2023-03-08T00:25:30.592Z,2.70
2023-03-08T00:27:58.524Z,1.88
2023-03-08T00:30:26.459Z,3.20
2023-03-08T00:32:54.701Z,2.08
2023-03-08T00:35:22.702Z,1.90
2023-03-08T00:37:52.099Z,1.98
2023-03-08T00:40:20.277Z,2.10
2023-03-08T00:42:48.286Z,2.50
2023-03-08T00:45:16.277Z,3.10
2023-03-08T00:47:44.204Z,2.88
2023-03-08T00:50:12.668Z,3.03
2023-03-08T00:52:40.720Z,2.60
2023-03-08T00:55:11.384Z,2.95
2023-03-08T00:57:39.344Z,3.58
2023-03-08T01:00:11.140Z,5.50
2023-03-08T01:02:41.175Z,5.00
2023-03-08T01:05:10.818Z,2.30
2023-03-08T01:07:38.834Z,2.22
2023-03-08T01:10:07.489Z,2.07
2023-03-08T01:12:37.303Z,3.00
2023-03-08T01:15:06.885Z,3.72
2023-03-08T01:17:34.839Z,2.60
2023-03-08T01:20:03.123Z,2.33
2023-03-08T01:22:31.053Z,2.35
2023-03-08T01:24:59.567Z,2.55
2023-03-08T01:27:27.504Z,3.90
2023-03-08T01:29:56.930Z,3.35
2023-03-08T01:32:24.955Z,4.03
2023-03-08T01:34:53.038Z,4.47
2023-03-08T01:37:20.960Z,5.55
2023-03-08T01:39:48.923Z,4.20
2023-03-08T01:42:16.891Z,3.90
2023-03-08T01:44:57.070Z,5.28
2023-03-08T01:47:26.803Z,2.93
2023-03-08T01:49:56.074Z,3.30
2023-03-08T01:52:30.911Z,3.10
2023-03-08T01:55:01.995Z,4.30
2023-03-08T01:57:32.568Z,3.83
2023-03-08T02:00:08.816Z,3.90
2023-03-08T02:02:42.291Z,3.83
2023-03-08T02:05:12.242Z,3.00
2023-03-08T02:07:40.215Z,4.70
2023-03-08T02:10:09.295Z,3.80
2023-03-08T02:12:38.073Z,3.50
2023-03-08T02:15:11.706Z,4.10
2023-03-08T02:17:41.338Z,3.13
2023-03-08T02:20:14.924Z,2.97
2023-03-08T02:22:45.383Z,3.50
2023-03-08T02:25:16.042Z,3.90
2023-03-08T02:27:44.195Z,2.97
2023-03-08T02:30:14.192Z,3.60
2023-03-08T02:32:42.225Z,3.05
2023-03-08T02:35:10.872Z,3.17
2023-03-08T02:37:38.808Z,3.80
2023-03-08T02:40:09.870Z,3.30
2023-03-08T02:42:37.863Z,3.08
2023-03-08T02:45:06.981Z,3.78
2023-03-08T02:47:35.262Z,3.38
2023-03-08T02:50:03.250Z,3.53
2023-03-08T02:52:31.193Z,4.75
2023-03-08T02:54:59.152Z,3.60
2023-03-08T02:57:28.436Z,4.70
2023-03-08T02:59:56.381Z,3.10
2023-03-08T03:02:24.401Z,3.95
2023-03-08T03:04:52.359Z,3.33
2023-03-08T03:07:20.306Z,3.17
2023-03-08T03:09:48.287Z,6.97
2023-03-08T03:12:16.257Z,2.80
2023-03-08T03:14:46.457Z,3.15
2023-03-08T03:17:14.359Z,3.03
2023-03-08T03:19:42.278Z,3.85
2023-03-08T03:22:10.274Z,4.32
2023-03-08T03:24:38.219Z,4.07
2023-03-08T03:27:06.354Z,3.50
2023-03-08T03:29:34.329Z,3.47
2023-03-08T03:32:03.714Z,3.38
2023-03-08T03:34:31.698Z,4.72
2023-03-08T03:36:59.739Z,5.35
2023-03-08T03:39:30.688Z,3.60
2023-03-08T03:41:58.620Z,4.47
2023-03-08T03:44:26.921Z,5.38
2023-03-08T03:46:54.929Z,4.40
2023-03-08T03:49:24.273Z,5.93
2023-03-08T03:51:52.208Z,5.03
2023-03-08T03:54:20.196Z,5.72
2023-03-08T03:56:48.182Z,6.25
2023-03-08T03:59:16.271Z,5.30
2023-03-08T04:01:44.550Z,6.85
2023-03-08T04:04:12.811Z,6.40
2023-03-08T04:06:42.276Z,7.23
2023-03-08T04:09:15.246Z,7.60
2023-03-08T04:11:43.250Z,8.48
2023-03-08T04:14:11.455Z,8.80
2023-03-08T04:16:40.725Z,10.20
2023-03-08T04:19:12.109Z,8.55
2023-03-08T04:21:41.533Z,9.52
2023-03-08T04:24:09.812Z,8.80
2023-03-08T04:26:38.000Z,9.70
2023-03-08T04:29:06.624Z,9.52
2023-03-08T04:31:37.156Z,8.43
2023-03-08T04:34:06.394Z,8.57
2023-03-08T04:36:34.460Z,10.20
2023-03-08T04:39:04.070Z,10.95
2023-03-08T04:41:32.015Z,8.73
2023-03-08T04:44:00.072Z,12.82
2023-03-08T04:46:29.365Z,13.82
2023-03-08T04:48:57.661Z,12.90
2023-03-08T04:51:27.361Z,12.50
2023-03-08T04:53:55.483Z,11.68
2023-03-08T04:56:24.863Z,12.77
2023-03-08T04:58:52.818Z,14.68
2023-03-08T05:01:22.322Z,14.60
2023-03-08T05:03:50.926Z,15.27
2023-03-08T05:06:20.147Z,19.88
2023-03-08T05:08:48.356Z,15.82
2023-03-08T05:11:20.160Z,21.20
2023-03-08T05:13:49.894Z,20.80
2023-03-08T05:16:18.225Z,23.10
2023-03-08T05:18:46.239Z,24.85
2023-03-08T05:21:16.618Z,27.90
2023-03-08T05:23:44.872Z,28.38
2023-03-08T05:26:16.476Z,28.17
2023-03-08T05:28:44.634Z,35.00
2023-03-08T05:31:16.391Z,29.85
2023-03-08T05:33:46.485Z,31.20
2023-03-08T05:36:15.769Z,31.98
2023-03-08T05:38:44.343Z,33.25
2023-03-08T05:41:15.500Z,36.75
2023-03-08T05:43:43.779Z,34.70
2023-03-08T05:46:15.661Z,31.25
2023-03-08T05:48:43.835Z,35.00
2023-03-08T05:51:13.610Z,33.08
2023-03-08T05:53:41.886Z,35.50
2023-03-08T05:56:11.551Z,32.75
2023-03-08T05:58:42.891Z,33.47
2023-03-08T06:01:16.687Z,36.10
2023-03-08T06:03:44.820Z,37.63
2023-03-08T06:06:13.370Z,37.00
2023-03-08T06:08:41.530Z,37.63
2023-03-08T06:11:10.299Z,38.83
2023-03-08T06:13:38.458Z,40.73
2023-03-08T06:16:07.956Z,35.40
2023-03-08T06:18:39.725Z,39.47
2023-03-08T06:21:09.762Z,40.35
2023-03-08T06:23:37.930Z,40.47
2023-03-08T06:26:07.180Z,41.80
2023-03-08T06:28:35.658Z,42.70
2023-03-08T06:31:04.222Z,45.28
2023-03-08T06:33:33.711Z,40.57
2023-03-08T06:36:05.499Z,39.45
2023-03-08T06:38:35.684Z,39.00
2023-03-08T06:41:04.758Z,40.55
2023-03-08T06:43:32.848Z,37.70
2023-03-08T06:46:04.152Z,40.38
2023-03-08T06:48:32.151Z,38.55
2023-03-08T06:51:00.332Z,41.28
2023-03-08T06:53:29.728Z,38.07
2023-03-08T06:55:57.694Z,44.03
2023-03-08T06:58:25.587Z,38.70
2023-03-08T07:00:55.329Z,40.58
2023-03-08T07:03:23.739Z,38.67
2023-03-08T07:05:51.709Z,39.63
2023-03-08T07:08:19.709Z,40.67
2023-03-08T07:10:49.023Z,42.10
2023-03-08T07:13:17.544Z,42.67
2023-03-08T07:15:45.611Z,43.58
2023-03-08T07:18:15.908Z,41.22
2023-03-08T07:20:44.029Z,43.33
2023-03-08T07:23:12.081Z,45.57
2023-03-08T07:25:40.962Z,44.28
2023-03-08T07:28:10.337Z,43.30
2023-03-08T07:30:38.281Z,45.75
2023-03-08T07:33:06.264Z,45.35
2023-03-08T07:35:34.382Z,44.88
2023-03-08T07:38:02.331Z,45.63
2023-03-08T07:40:30.251Z,43.88
2023-03-08T07:42:58.249Z,41.58
2023-03-08T07:45:27.575Z,43.50
2023-03-08T07:47:55.533Z,46.28
2023-03-08T07:50:23.486Z,45.05
2023-03-08T07:52:51.543Z,48.40
2023-03-08T07:55:19.675Z,48.80
2023-03-08T07:57:47.597Z,52.53
2023-03-08T08:00:16.406Z,51.85
2023-03-08T08:02:46.008Z,51.22
2023-03-08T08:05:14.101Z,48.20
2023-03-08T08:07:42.074Z,52.55
2023-03-08T08:10:11.044Z,49.92
2023-03-08T08:12:39.027Z,48.63
2023-03-08T08:15:07.994Z,47.60
2023-03-08T08:17:35.967Z,47.70
2023-03-08T08:20:06.681Z,51.55
2023-03-08T08:22:36.432Z,51.60
2023-03-08T08:25:05.428Z,50.80
2023-03-08T08:27:33.384Z,52.28
2023-03-08T08:30:01.420Z,52.35
2023-03-08T08:32:29.476Z,58.25
2023-03-08T08:34:59.312Z,51.30
2023-03-08T08:37:31.102Z,54.53
2023-03-08T08:39:59.433Z,52.25
2023-03-08T08:42:27.710Z,51.80
2023-03-08T08:44:55.917Z,54.83
2023-03-08T08:47:24.176Z,56.83
2023-03-08T08:49:53.422Z,57.20
2023-03-08T08:52:21.449Z,48.85
2023-03-08T08:54:50.832Z,47.45
2023-03-08T08:57:18.787Z,48.50
2023-03-08T08:59:47.873Z,51.03
2023-03-08T09:02:16.118Z,48.67
2023-03-08T09:04:44.431Z,48.85
2023-03-08T09:07:12.540Z,44.20
2023-03-08T09:09:40.538Z,44.50
2023-03-08T09:12:10.310Z,44.53
2023-03-08T09:14:38.308Z,45.53
2023-03-08T09:17:07.405Z,44.70
2023-03-08T09:19:36.504Z,42.15
2023-03-08T09:22:05.164Z,42.05
2023-03-08T09:24:33.225Z,39.85
2023-03-08T09:27:01.166Z,43.60
2023-03-08T09:29:30.523Z,40.00
2023-03-08T09:31:58.910Z,38.57
2023-03-08T09:34:27.692Z,37.03
2023-03-08T09:36:55.671Z,41.63
2023-03-08T09:39:23.688Z,40.05
2023-03-08T09:41:55.555Z,42.03
2023-03-08T09:45:03.188Z,44.60
2023-03-08T09:47:40.648Z,46.83
2023-03-08T09:50:20.512Z,49.97
2023-03-08T09:52:52.231Z,48.40
2023-03-08T09:55:26.382Z,50.40
2023-03-08T09:57:56.945Z,54.22
2023-03-08T10:00:29.950Z,50.85
2023-03-08T10:03:14.577Z,49.50
2023-03-08T10:05:46.151Z,48.05
2023-03-08T10:08:17.885Z,46.17
2023-03-08T10:10:53.371Z,49.05
2023-03-08T10:13:36.275Z,46.33
2023-03-08T10:16:15.192Z,46.63
2023-03-08T10:18:49.508Z,45.17
2023-03-08T10:21:20.534Z,42.85
2023-03-08T10:23:52.383Z,43.78
2023-03-08T10:26:20.423Z,41.17
2023-03-08T10:28:48.388Z,37.08
2023-03-08T10:31:22.948Z,36.97
2023-03-08T10:33:58.546Z,33.95
2023-03-08T10:36:27.199Z,33.72
2023-03-08T10:39:02.397Z,34.53
2023-03-08T10:41:32.958Z,33.22
2023-03-08T10:44:01.574Z,30.70
2023-03-08T10:46:32.912Z,30.88
2023-03-08T10:49:17.397Z,29.52
2023-03-08T10:51:55.024Z,29.90
2023-03-08T10:54:23.008Z,30.95
2023-03-08T10:56:57.497Z,29.70
2023-03-08T10:59:32.318Z,27.23
2023-03-08T11:02:02.828Z,26.80
2023-03-08T11:04:32.657Z,26.23
2023-03-08T11:07:11.575Z,23.98
2023-03-08T11:09:39.582Z,25.08
2023-03-08T11:12:07.877Z,27.23
2023-03-08T11:14:36.199Z,24.50
2023-03-08T11:17:17.069Z,28.17
2023-03-08T11:19:59.832Z,26.80
2023-03-08T11:22:39.819Z,26.88
2023-03-08T11:25:16.690Z,23.90
2023-03-08T11:28:01.948Z,26.50
2023-03-08T11:30:40.480Z,26.45
2023-03-08T11:33:38.209Z,26.75
2023-03-08T11:36:15.407Z,27.70
2023-03-08T11:38:43.949Z,27.67
2023-03-08T11:41:21.111Z,31.35
2023-03-08T11:44:10.559Z,25.52
2023-03-08T11:46:50.584Z,26.38
2023-03-08T11:49:34.665Z,29.92
2023-03-08T11:52:18.605Z,30.50
2023-03-08T11:54:56.785Z,28.03
2023-03-08T11:57:28.880Z,28.23
2023-03-08T12:00:00.898Z,28.80
2023-03-08T12:02:31.563Z,26.10
2023-03-08T12:05:04.741Z,28.13
2023-03-08T12:07:38.634Z,26.73
2023-03-08T12:10:16.915Z,26.40
2023-03-08T12:12:51.003Z,28.17
2023-03-08T12:15:28.535Z,26.77
2023-03-08T12:18:03.772Z,25.77
2023-03-08T12:20:36.216Z,24.00
2023-03-08T12:23:19.684Z,26.88
2023-03-08T12:25:51.466Z,25.27
2023-03-08T12:28:24.460Z,28.00
2023-03-08T12:31:09.242Z,23.83
2023-03-08T12:33:41.078Z,21.38
2023-03-08T12:36:10.381Z,24.05
2023-03-08T12:38:42.431Z,26.10
2023-03-08T12:41:24.808Z,25.15
2023-03-08T12:44:04.142Z,24.38
2023-03-08T12:47:01.691Z,23.83
2023-03-08T12:49:34.397Z,22.70
2023-03-08T12:52:06.454Z,24.43
2023-03-08T12:54:36.850Z,23.42
2023-03-08T12:57:17.146Z,23.05
2023-03-08T12:59:46.679Z,26.40
2023-03-08T13:02:30.646Z,24.55
2023-03-08T13:05:21.470Z,22.65
2023-03-08T13:08:06.305Z,23.20
2023-03-08T13:10:38.821Z,22.45
2023-03-08T13:13:37.490Z,25.17
2023-03-08T13:16:31.760Z,24.80
2023-03-08T13:19:12.448Z,22.77
2023-03-08T13:21:47.722Z,21.25
2023-03-08T13:24:23.645Z,24.70
2023-03-08T13:27:05.348Z,22.45
2023-03-08T13:29:34.774Z,22.60
2023-03-08T13:32:08.664Z,21.20
2023-03-08T13:34:36.917Z,22.23
2023-03-08T13:37:04.995Z,23.00
2023-03-08T13:39:33.423Z,24.75
2023-03-08T13:42:10.793Z,24.33
2023-03-08T13:44:39.370Z,22.23
2023-03-08T13:47:22.275Z,25.27
2023-03-08T13:49:52.079Z,23.53
2023-03-08T13:52:22.933Z,24.60
2023-03-08T13:54:54.842Z,23.25
2023-03-08T13:57:26.501Z,20.70
2023-03-08T13:59:56.758Z,23.02
2023-03-08T14:02:26.915Z,23.27
2023-03-08T14:04:55.542Z,26.80
2023-03-08T14:07:28.017Z,23.33
2023-03-08T14:09:56.420Z,26.63
2023-03-08T14:12:29.970Z,25.80
2023-03-08T14:15:02.032Z,24.55
2023-03-08T14:17:32.760Z,29.30
2023-03-08T14:20:05.186Z,32.78
2023-03-08T14:22:41.102Z,35.15
2023-03-08T14:25:27.080Z,31.13
2023-03-08T14:27:57.233Z,31.98
2023-03-08T14:30:26.721Z,27.95
2023-03-08T14:33:01.310Z,28.67
2023-03-08T14:35:31.891Z,30.10
2023-03-08T14:38:00.207Z,32.28
2023-03-08T14:40:31.252Z,28.85
2023-03-08T14:43:04.714Z,29.70
2023-03-08T14:45:37.948Z,31.52
2023-03-08T14:48:24.391Z,32.10
2023-03-08T14:50:55.209Z,28.42
2023-03-08T14:53:41.849Z,30.38
2023-03-08T14:56:14.296Z,32.22
2023-03-08T14:58:46.837Z,29.75
2023-03-08T15:01:25.619Z,30.45
2023-03-08T15:03:53.642Z,31.52
2023-03-08T15:06:23.867Z,27.35
2023-03-08T15:08:52.364Z,31.13
2023-03-08T15:11:20.910Z,30.63
2023-03-08T15:13:50.622Z,33.22
2023-03-08T15:16:18.791Z,32.07
2023-03-08T15:18:46.746Z,29.73
2023-03-08T15:21:17.131Z,28.88
2023-03-08T15:23:47.480Z,34.67
2023-03-08T15:26:20.910Z,34.80
2023-03-08T15:28:50.324Z,33.28
2023-03-08T15:31:18.493Z,33.72
2023-03-08T15:33:46.447Z,34.42
2023-03-08T15:36:15.832Z,35.88
2023-03-08T15:38:44.329Z,36.80
2023-03-08T15:41:12.991Z,32.70
2023-03-08T15:43:41.032Z,34.42
2023-03-08T15:46:12.964Z,32.88
2023-03-08T15:48:41.028Z,30.55
2023-03-08T15:51:17.502Z,31.98
2023-03-08T15:53:45.479Z,31.48
2023-03-08T15:56:13.434Z,32.15
2023-03-08T15:58:41.482Z,29.42
2023-03-08T16:01:11.998Z,29.30
2023-03-08T16:03:40.363Z,29.55
2023-03-08T16:06:10.615Z,27.42
2023-03-08T16:08:39.443Z,26.98
2023-03-08T16:11:07.999Z,28.08
2023-03-08T16:13:36.395Z,27.98
2023-03-08T16:16:05.546Z,27.65
2023-03-08T16:18:35.925Z,25.93
2023-03-08T16:21:08.678Z,27.42
2023-03-08T16:23:36.731Z,26.00
2023-03-08T16:26:15.117Z,24.13
2023-03-08T16:28:44.924Z,23.90
2023-03-08T16:31:13.596Z,22.08
2023-03-08T16:33:42.967Z,26.35
2023-03-08T16:36:12.740Z,21.88
2023-03-08T16:38:41.493Z,20.00
2023-03-08T16:41:13.279Z,24.60
2023-03-08T16:43:49.510Z,21.95
2023-03-08T16:46:19.633Z,24.08
2023-03-08T16:48:50.342Z,21.55
2023-03-08T16:51:20.105Z,23.52
2023-03-08T16:53:48.250Z,21.73
2023-03-08T16:56:19.052Z,21.33
2023-03-08T16:58:47.147Z,23.00
2023-03-08T17:01:16.288Z,21.58
2023-03-08T17:03:44.741Z,22.10
2023-03-08T17:06:16.873Z,22.77
2023-03-08T17:08:44.871Z,22.48
2023-03-08T17:11:16.611Z,26.25
2023-03-08T17:13:44.850Z,25.40
2023-03-08T17:16:13.612Z,23.15
2023-03-08T17:18:41.522Z,21.02
2023-03-08T17:21:09.734Z,24.88
2023-03-08T17:23:39.156Z,21.42
2023-03-08T17:26:09.307Z,24.42
2023-03-08T17:28:38.368Z,22.70
2023-03-08T17:31:09.848Z,22.63
2023-03-08T17:33:38.508Z,22.03
2023-03-08T17:36:08.422Z,24.52
2023-03-08T17:38:37.792Z,23.02
2023-03-08T17:41:07.576Z,24.08
2023-03-08T17:43:35.808Z,22.60
2023-03-08T17:46:06.604Z,23.38
2023-03-08T17:48:35.683Z,23.30
2023-03-08T17:51:05.195Z,25.20
2023-03-08T17:53:33.255Z,22.00
2023-03-08T17:56:05.975Z,23.38
2023-03-08T17:58:34.295Z,22.80
2023-03-08T18:01:09.155Z,24.85
2023-03-08T18:03:37.166Z,25.17
2023-03-08T18:06:06.213Z,25.92
2023-03-08T18:08:34.805Z,26.50
2023-03-08T18:11:04.243Z,25.50
2023-03-08T18:13:32.217Z,25.35
2023-03-08T18:16:00.245Z,29.52
2023-03-08T18:18:28.222Z,27.35
2023-03-08T18:21:10.631Z,24.13
2023-03-08T18:23:41.804Z,27.85
2023-03-08T18:26:11.757Z,26.88
2023-03-08T18:28:39.732Z,28.10
2023-03-08T18:31:09.014Z,27.77
2023-03-08T18:33:37.054Z,28.17
2023-03-08T18:36:05.417Z,27.27
2023-03-08T18:38:33.385Z,29.98
2023-03-08T18:41:01.421Z,29.73
2023-03-08T18:43:31.024Z,28.55
2023-03-08T18:45:58.954Z,31.95
2023-03-08T18:48:26.874Z,29.40
2023-03-08T18:50:54.843Z,27.73
2023-03-08T18:53:22.852Z,32.80
2023-03-08T18:55:55.284Z,30.40
2023-03-08T18:58:24.539Z,31.95
2023-03-08T19:00:54.799Z,30.70
2023-03-08T19:03:22.936Z,34.85
2023-03-08T19:05:50.918Z,31.05
2023-03-08T19:08:18.974Z,31.67
2023-03-08T19:10:47.049Z,32.47
2023-03-08T19:13:15.134Z,32.30
2023-03-08T19:15:43.168Z,33.03
2023-03-08T19:18:15.247Z,32.13
2023-03-08T19:20:43.970Z,31.55
2023-03-08T19:23:12.171Z,32.30
2023-03-08T19:26:00.251Z,31.85
2023-03-08T19:28:28.443Z,32.55
2023-03-08T19:30:56.568Z,33.50
2023-03-08T19:33:30.804Z,36.70
2023-03-08T19:35:59.230Z,33.80
2023-03-08T19:38:27.175Z,33.75
2023-03-08T19:40:55.435Z,33.95
2023-03-08T19:43:23.368Z,33.60
2023-03-08T19:45:51.727Z,34.53
2023-03-08T19:48:19.896Z,39.50
2023-03-08T19:50:50.847Z,37.97
2023-03-08T19:53:18.801Z,37.57
2023-03-08T19:55:50.901Z,37.40
2023-03-08T19:58:19.484Z,38.05
2023-03-08T20:00:48.752Z,39.28
2023-03-08T20:03:18.809Z,35.45
2023-03-08T20:05:48.523Z,33.38
2023-03-08T20:08:17.884Z,35.97
2023-03-08T20:10:45.863Z,34.17
2023-03-08T20:13:13.896Z,34.88
2023-03-08T20:15:41.964Z,34.58
2023-03-08T20:18:10.116Z,32.92
2023-03-08T20:20:38.404Z,33.78
2023-03-08T20:23:06.560Z,32.75
2023-03-08T20:25:35.874Z,30.95
2023-03-08T20:28:03.847Z,31.55
2023-03-08T20:30:31.859Z,28.77
2023-03-08T20:32:59.794Z,33.67
2023-03-08T20:35:27.877Z,34.05
2023-03-08T20:37:55.835Z,32.93
2023-03-08T20:40:23.900Z,32.53
2023-03-08T20:42:57.672Z,33.30
2023-03-08T20:45:26.573Z,29.30
2023-03-08T20:47:57.344Z,26.70
2023-03-08T20:50:27.418Z,27.65
2023-03-08T20:52:55.403Z,26.70
2023-03-08T20:55:23.366Z,27.83
2023-03-08T20:57:53.870Z,24.20
2023-03-08T21:00:25.155Z,24.33
2023-03-08T21:02:53.419Z,24.10
2023-03-08T21:05:21.402Z,24.60
2023-03-08T21:07:49.513Z,24.70
2023-03-08T21:10:17.983Z,23.60
2023-03-08T21:12:46.389Z,25.67
2023-03-08T21:15:16.180Z,21.85
2023-03-08T21:17:44.127Z,22.27
2023-03-08T21:20:13.248Z,24.15
2023-03-08T21:22:41.227Z,21.10
2023-03-08T21:25:09.978Z,23.77
2023-03-08T21:27:38.262Z,21.08
2023-03-08T21:30:07.341Z,21.95
2023-03-08T21:32:36.675Z,20.97
2023-03-08T21:35:05.094Z,20.25
2023-03-08T21:37:33.107Z,21.15
2023-03-08T21:40:01.061Z,22.60
2023-03-08T21:42:29.025Z,23.57
2023-03-08T21:44:56.976Z,22.70
2023-03-08T21:47:24.965Z,22.67
2023-03-08T21:49:54.301Z,19.80
2023-03-08T21:52:22.266Z,25.25
2023-03-08T21:54:50.176Z,24.25
2023-03-08T21:57:18.204Z,24.27
2023-03-08T21:59:46.123Z,24.98
2023-03-08T22:02:14.188Z,28.33
2023-03-08T22:04:42.204Z,26.15
2023-03-08T22:07:11.704Z,25.35
2023-03-08T22:09:39.655Z,25.98
2023-03-08T22:12:08.670Z,29.55
2023-03-08T22:14:36.651Z,28.85
2023-03-08T22:17:04.625Z,25.33
2023-03-08T22:19:32.643Z,31.35
2023-03-08T22:22:00.828Z,29.15
2023-03-08T22:24:32.746Z,28.27
2023-03-08T22:27:01.409Z,27.50
2023-03-08T22:29:29.431Z,26.83
2023-03-08T22:31:57.563Z,24.50
2023-03-08T22:34:25.501Z,24.02
2023-03-08T22:36:53.586Z,24.88
2023-03-08T22:39:21.587Z,24.98
2023-03-08T22:41:50.955Z,24.25
2023-03-08T22:44:18.904Z,23.08
2023-03-08T22:46:46.968Z,24.55
2023-03-08T22:49:16.965Z,24.23
2023-03-08T22:51:45.101Z,23.77
2023-03-08T22:54:16.386Z,24.48
2023-03-08T22:56:44.410Z,23.58
2023-03-08T22:59:14.186Z,23.23
2023-03-08T23:01:42.327Z,22.98
2023-03-08T23:04:11.828Z,26.15
2023-03-08T23:06:39.795Z,21.73
2023-03-08T23:09:10.388Z,21.20
2023-03-08T23:11:39.180Z,29.23
2023-03-08T23:14:08.270Z,22.50
2023-03-08T23:16:38.012Z,24.13
2023-03-08T23:19:06.018Z,25.23
2023-03-08T23:21:35.790Z,24.07
2023-03-08T23:24:03.801Z,22.98
2023-03-08T23:26:32.841Z,23.35
2023-03-08T23:29:03.302Z,26.17
2023-03-08T23:31:33.192Z,21.75
2023-03-08T23:34:03.944Z,23.67
2023-03-08T23:36:33.810Z,24.85
2023-03-08T23:39:03.690Z,23.95
2023-03-08T23:41:32.633Z,23.00
2023-03-08T23:44:02.041Z,23.00
2023-03-08T23:46:30.275Z,22.58
2023-03-08T23:48:59.559Z,24.08
2023-03-08T23:51:31.228Z,19.98
2023-03-08T23:54:01.467Z,21.08
2023-03-08T23:56:31.137Z,20.95
2023-03-08T23:59:02.434Z,21.52
